Data for 12/22/2013

Time Sea-Level Adjusted Pressure Absolute Pressure Temperature Relative Humidity Dew Point   
(mb) (inHg) (mb) (inHg) (C) (F) (%) (C) (F)
00:05 1014 29.94 844 24.92 -4.3 24.3 79 -7.4 18.6
00:10 1014 29.94 844 24.92 -4 24.7 77 -7.5 18.6
00:15 1014 29.94 844 24.92 -4 24.9 78 -7.2 19
00:20 1014 29.94 844 24.92 -4 24.8 77 -7.4 18.6
00:25 1014 29.94 844 24.92 -4 24.9 78 -7.2 19
00:30 1014 29.94 844 24.92 -4 24.8 78 -7.3 18.9
00:35 1014 29.94 844 24.92 -4 24.9 77 -7.4 18.7
00:40 1014 29.94 844 24.92 -3.9 25 76 -7.5 18.5
00:45 1014 29.94 844 24.92 -3.7 25.3 74 -7.6 18.3
00:50 1014 29.94 844 24.92 -3.6 25.5 78 -7 19.5
00:55 1014 29.94 844 24.92 -3.7 25.3 75 -7.6 18.4
01:00 1014 29.94 844 24.92 -3.6 25.5 77 -7 19.4
01:05 1014 29.94 844 24.92 -3.7 25.4 75 -7.5 18.6
01:10 1014 29.94 844 24.92 -3.4 25.9 72 -7.8 18
01:15 1014 29.94 844 24.92 -3.3 26 75 -7.1 19.2
01:20 1014 29.94 844 24.92 -3.3 26 75 -7.2 19.1
01:25 1014 29.94 844 24.92 -3.3 26.1 74 -7.3 18.9
01:30 1015 29.97 844 24.92 -3.2 26.2 74 -7.2 19
01:35 1014 29.94 844 24.92 -3.1 26.4 75 -6.8 19.7
01:40 1014 29.94 844 24.92 -3 26.5 76 -6.6 20.1
01:45 1014 29.94 844 24.92 -3 26.5 77 -6.5 20.2
01:50 1014 29.94 844 24.92 -3.1 26.5 79 -6.3 20.7
01:55 1014 29.94 844 24.92 -3.2 26.3 81 -5.9 21.3
02:00 1014 29.94 844 24.92 -3.3 26.1 83 -5.7 21.7
02:05 1014 29.94 843 24.89 -3.4 25.9 85 -5.5 22.1
02:10 1014 29.94 843 24.89 -3.4 25.9 85 -5.6 22
02:15 1014 29.94 843 24.89 -3.5 25.7 86 -5.5 22
02:20 1014 29.94 844 24.92 -3.5 25.7 85 -5.6 21.9
02:25 1014 29.94 844 24.92 -3.5 25.6 86 -5.6 21.9
02:30 1014 29.94 844 24.92 -3.6 25.5 86 -5.7 21.8
02:35 1014 29.94 844 24.92 -3.7 25.3 86 -5.7 21.7
02:40 1014 29.94 844 24.92 -3.8 25.2 86 -5.8 21.6
02:45 1014 29.94 844 24.92 -3.8 25.2 86 -5.8 21.6
02:50 1014 29.94 843 24.89 -3.7 25.3 85 -5.8 21.6
02:55 1014 29.94 843 24.89 -3.7 25.4 86 -5.7 21.7
03:00 1014 29.94 843 24.89 -3.6 25.4 86 -5.6 21.9
03:05 1014 29.94 843 24.89 -3.6 25.5 86 -5.6 21.9
03:10 1014 29.94 843 24.89 -3.6 25.5 87 -5.5 22.1
03:15 1014 29.94 843 24.89 -3.6 25.6 87 -5.5 22.1
03:20 1014 29.94 843 24.89 -3.6 25.6 87 -5.4 22.2
03:25 1014 29.94 843 24.89 -3.6 25.5 87 -5.4 22.3
03:30 1014 29.94 843 24.89 -3.8 25.2 88 -5.5 22.1
03:35 1014 29.94 843 24.89 -3.6 25.5 87 -5.5 22.1
03:40 1014 29.94 843 24.89 -3.6 25.5 87 -5.4 22.3
03:45 1014 29.94 843 24.89 -3.6 25.5 87 -5.4 22.2
03:50 1014 29.94 844 24.92 -3.4 25.8 86 -5.4 22.2
03:55 1014 29.94 844 24.92 -3.3 26.1 85 -5.5 22.2
04:00 1014 29.94 844 24.92 -3.3 26.1 84 -5.6 22
04:05 1014 29.94 844 24.92 -3.1 26.4 84 -5.4 22.2
04:10 1014 29.94 844 24.92 -3.2 26.2 82 -5.8 21.6
04:15 1014 29.94 844 24.92 -3.1 26.5 84 -5.4 22.2
04:20 1015 29.97 844 24.92 -3 26.6 82 -5.6 21.9
04:25 1015 29.97 844 24.92 -2.9 26.8 81 -5.7 21.7
04:30 1015 29.97 844 24.92 -2.8 27 82 -5.5 22.1
04:35 1015 29.97 844 24.92 -2.9 26.8 83 -5.4 22.3
04:40 1015 29.97 844 24.92 -2.9 26.8 84 -5.3 22.5
04:45 1015 29.97 844 24.92 -2.9 26.7 85 -5.1 22.8
04:50 1015 29.97 844 24.92 -3 26.7 86 -5 23
04:55 1014 29.94 844 24.92 -3.1 26.5 87 -4.9 23.1
05:00 1014 29.94 844 24.92 -3.2 26.3 88 -4.9 23.2
05:05 1014 29.94 844 24.92 -3.3 26 89 -4.9 23.2
05:10 1014 29.94 844 24.92 -3.4 25.8 90 -4.8 23.4
05:15 1014 29.94 844 24.92 -3.6 25.5 91 -4.8 23.3
05:20 1014 29.94 844 24.92 -3.7 25.3 92 -4.9 23.3
05:25 1014 29.94 843 24.89 -3.8 25.2 92 -4.8 23.3
05:30 1014 29.94 843 24.89 -3.8 25.1 93 -4.9 23.3
05:35 1014 29.94 844 24.92 -3.9 25.1 93 -4.9 23.2
05:40 1014 29.94 844 24.92 -3.9 25 93 -4.9 23.2
05:45 1014 29.94 844 24.92 -3.9 25 93 -4.9 23.2
05:50 1014 29.94 844 24.92 -3.9 25 93 -4.9 23.2
05:55 1014 29.94 844 24.92 -3.8 25.1 93 -4.8 23.3
06:00 1014 29.94 844 24.92 -3.8 25.1 93 -4.8 23.3
06:05 1014 29.94 843 24.89 -3.8 25.2 92 -4.9 23.2
06:10 1014 29.94 843 24.89 -3.8 25.2 92 -4.8 23.3
06:15 1014 29.94 843 24.89 -3.8 25.2 92 -4.9 23.2
06:20 1014 29.94 843 24.89 -3.7 25.4 92 -4.8 23.3
06:25 1014 29.94 843 24.89 -3.5 25.7 90 -4.9 23.2
06:30 1014 29.94 843 24.89 -3.2 26.2 88 -4.9 23.2
06:35 1014 29.94 844 24.92 -3.2 26.3 89 -4.8 23.3
06:40 1014 29.94 844 24.92 -3.3 26.1 89 -4.8 23.3
06:45 1014 29.94 844 24.92 -3.1 26.4 86 -5.1 22.8
06:50 1014 29.94 844 24.92 -2.8 26.9 85 -5 23
06:55 1014 29.94 844 24.92 -2.7 27.1 84 -5.1 22.9
07:00 1014 29.94 844 24.92 -2.7 27.1 83 -5.2 22.6
07:05 1014 29.94 844 24.92 -2.6 27.3 83 -5.2 22.7
07:10 1015 29.97 844 24.92 -2.6 27.2 82 -5.3 22.5
07:15 1015 29.97 844 24.92 -2.7 27.2 84 -5.1 22.9
07:20 1015 29.97 844 24.92 -2.8 27 84 -5.1 22.8
07:25 1015 29.97 844 24.92 -2.9 26.8 82 -5.5 22.1
07:30 1015 29.97 844 24.92 -2.6 27.2 82 -5.3 22.5
07:35 1015 29.97 844 24.92 -2.8 27 84 -5.2 22.7
07:40 1015 29.97 844 24.92 -3 26.6 85 -5.2 22.6
07:45 1015 29.97 844 24.92 -3.1 26.4 85 -5.3 22.5
07:50 1015 29.97 844 24.92 -3.1 26.4 85 -5.3 22.4
07:55 1015 29.97 844 24.92 -3.2 26.2 85 -5.4 22.3
08:00 1015 29.97 844 24.92 -3.3 26.1 84 -5.5 22
08:05 1015 29.97 844 24.92 -3.2 26.3 84 -5.5 22.1
08:10 1015 29.97 844 24.92 -3.3 26.1 85 -5.5 22.1
08:15 1015 29.97 844 24.92 -3.3 26 85 -5.6 22
08:20 1015 29.97 844 24.92 -3.3 26.1 85 -5.4 22.3
08:25 1015 29.97 844 24.92 -3.4 25.8 86 -5.4 22.3
08:30 1015 29.97 844 24.92 -3.5 25.7 87 -5.4 22.3
08:35 1015 29.97 844 24.92 -3.4 25.8 86 -5.4 22.2
08:40 1015 29.97 844 24.92 -3.4 26 85 -5.5 22.1
08:45 1015 29.97 844 24.92 -3.2 26.2 84 -5.6 21.9
08:50 1015 29.97 844 24.92 -3.1 26.5 82 -5.7 21.8
08:55 1015 29.97 845 24.95 -2.9 26.8 80 -5.8 21.5
09:00 1015 29.97 845 24.95 -2.8 26.9 79 -5.9 21.3
09:05 1015 29.97 845 24.95 -2.6 27.3 79 -5.8 21.6
09:10 1015 29.97 845 24.95 -2.5 27.4 77 -6 21.3
09:15 1016 30 845 24.95 -2.5 27.5 79 -5.6 21.9
09:20 1016 30 845 24.95 -2.6 27.4 78 -6 21.2
09:25 1016 30 845 24.95 -2.6 27.3 78 -5.9 21.5
09:30 1016 30 845 24.95 -2.5 27.5 77 -6 21.2
09:35 1016 30 845 24.95 -2.5 27.5 76 -6.1 21
09:40 1016 30 845 24.95 -2.5 27.6 78 -5.8 21.6
09:45 1016 30 845 24.95 -2.5 27.5 79 -5.7 21.8
09:50 1016 30 845 24.95 -2.6 27.4 80 -5.5 22.2
09:55 1016 30 845 24.95 -2.8 27 80 -5.7 21.8
10:00 1016 30 845 24.95 -2.7 27.1 80 -5.8 21.6
10:05 1016 30 845 24.95 -2.5 27.4 77 -6.1 21.1
10:10 1016 30 845 24.95 -2.3 27.8 78 -5.6 21.9
10:15 1016 30 845 24.95 -2.6 27.3 79 -5.7 21.7
10:20 1016 30 846 24.98 -2.5 27.4 79 -5.6 21.9
10:25 1016 30 846 24.98 -2.4 27.7 81 -5.3 22.5
10:30 1017 30.03 846 24.98 -2.5 27.6 82 -5.1 22.8
10:35 1017 30.03 846 24.98 -2.5 27.5 83 -5 22.9
10:40 1017 30.03 846 24.98 -2.4 27.7 84 -4.7 23.6
10:45 1017 30.03 846 24.98 -2.4 27.8 85 -4.6 23.8
10:50 1017 30.03 846 24.98 -2.4 27.8 86 -4.4 24
10:55 1017 30.03 846 24.98 -2.3 27.9 86 -4.4 24.1
11:00 1017 30.03 846 24.98 -2.3 27.9 86 -4.3 24.3
11:05 1017 30.03 846 24.98 -2.2 28 86 -4.3 24.3
11:10 1017 30.03 846 24.98 -2.3 27.8 87 -4.2 24.5
11:15 1017 30.03 846 24.98 -2.3 27.8 87 -4.2 24.5
11:20 1017 30.03 847 25.01 -2.7 27.2 90 -4.1 24.5
11:25 1017 30.03 847 25.01 -2.9 26.8 91 -4.2 24.4
11:30 1017 30.03 847 25.01 -3 26.6 92 -4.2 24.4
11:35 1017 30.03 847 25.01 -3 26.6 92 -4.2 24.5
11:40 1017 30.03 847 25.01 -3 26.6 92 -4.2 24.5
11:45 1017 30.03 847 25.01 -3 26.6 92 -4.2 24.5
11:50 1017 30.03 847 25.01 -3 26.6 92 -4.1 24.6
11:55 1017 30.03 847 25.01 -3 26.7 92 -4.2 24.5
12:00 1018 30.06 847 25.01 -2.9 26.8 91 -4.1 24.5
12:05 1018 30.06 847 25.01 -2.8 26.9 91 -4.1 24.6
12:10 1018 30.06 847 25.01 -2.7 27.1 91 -4 24.8
12:15 1018 30.06 847 25.01 -2.6 27.3 91 -3.9 25
12:20 1018 30.06 847 25.01 -2.4 27.6 90 -3.8 25.1
12:25 1018 30.06 847 25.01 -2.3 27.8 90 -3.8 25.2
12:30 1018 30.06 847 25.01 -2.3 27.9 89 -3.8 25.1
12:35 1018 30.06 847 25.01 -2.2 28.1 89 -3.8 25.2
12:40 1018 30.06 847 25.01 -2.1 28.2 89 -3.7 25.3
12:45 1018 30.06 847 25.01 -2.1 28.3 87 -4 24.9
12:50 1018 30.06 847 25.01 -2 28.4 86 -4 24.7
12:55 1017 30.03 847 25.01 -1.9 28.5 85 -4.1 24.7
13:00 1018 30.06 847 25.01 -1.8 28.8 84 -4.1 24.6
13:05 1018 30.06 847 25.01 -1.7 29 83 -4.1 24.6
13:10 1018 30.06 847 25.01 -1.6 29.1 83 -4.2 24.5
13:15 1018 30.06 847 25.01 -1.5 29.2 82 -4.3 24.3
13:20 1018 30.06 847 25.01 -1.5 29.3 82 -4.1 24.6
13:25 1018 30.06 847 25.01 -1.4 29.5 81 -4.3 24.3
13:30 1018 30.06 847 25.01 -1 30.2 80 -4.1 24.6
13:35 1018 30.06 847 25.01 -0.9 30.4 80 -4 24.9
13:40 1018 30.06 847 25.01 -1 30.2 80 -4 24.8
13:45 1018 30.06 847 25.01 -0.9 30.4 80 -4 24.8
13:50 1018 30.06 847 25.01 -0.8 30.5 79 -3.9 24.9
13:55 1018 30.06 847 25.01 -0.8 30.6 79 -3.9 25
14:00 1018 30.06 847 25.01 -0.7 30.8 79 -3.9 25.1
14:05 1018 30.06 847 25.01 -0.8 30.5 80 -3.8 25.1
14:10 1018 30.06 847 25.01 -1 30.1 82 -3.7 25.3
14:15 1018 30.06 847 25.01 -1 30.2 82 -3.7 25.3
14:20 1018 30.06 847 25.01 -1.2 29.8 82 -3.9 25.1
14:25 1018 30.06 847 25.01 -1.3 29.7 82 -4 24.8
14:30 1018 30.06 847 25.01 -1.4 29.5 82 -4 24.8
14:35 1018 30.06 847 25.01 -1.4 29.6 82 -4 24.8
14:40 1018 30.06 847 25.01 -1.4 29.4 82 -4.1 24.7
14:45 1018 30.06 847 25.01 -1.5 29.4 83 -4 24.7
14:50 1018 30.06 847 25.01 -1.5 29.4 83 -4 24.7
14:55 1018 30.06 847 25.01 -1.6 29.1 83 -4.1 24.6
15:00 1018 30.06 847 25.01 -1.7 29 83 -4.2 24.5
15:05 1018 30.06 847 25.01 -1.9 28.6 84 -4.3 24.3
15:10 1018 30.06 847 25.01 -2.1 28.3 84 -4.3 24.2
15:15 1018 30.06 847 25.01 -2.2 28.1 84 -4.6 23.7
15:20 1018 30.06 847 25.01 -2.3 27.8 84 -4.7 23.6
15:25 1018 30.06 847 25.01 -2.5 27.5 85 -4.7 23.5
15:30 1018 30.06 847 25.01 -2.6 27.2 84 -4.9 23.2
15:35 1018 30.06 847 25.01 -2.7 27.1 84 -5 23
15:40 1018 30.06 848 25.04 -2.6 27.4 83 -5 23
15:45 1018 30.06 848 25.04 -2.7 27.2 84 -5 22.9
15:50 1018 30.06 848 25.04 -2.7 27.1 84 -5.1 22.8
15:55 1018 30.06 848 25.04 -2.8 26.9 84 -5.2 22.7
16:00 1019 30.09 848 25.04 -2.9 26.8 84 -5.2 22.6
16:05 1019 30.09 848 25.04 -3 26.6 84 -5.4 22.4
16:10 1019 30.09 848 25.04 -3 26.5 84 -5.4 22.3
16:15 1019 30.09 848 25.04 -3.2 26.3 84 -5.5 22.1
16:20 1019 30.09 848 25.04 -3.2 26.3 84 -5.6 22
16:25 1019 30.09 848 25.04 -3.2 26.2 85 -5.5 22.2
16:30 1019 30.09 848 25.04 -3.3 26.1 84 -5.5 22
16:35 1019 30.09 848 25.04 -3.4 25.9 86 -5.5 22.1
16:40 1019 30.09 848 25.04 -3.8 25.1 87 -5.7 21.8
16:45 1019 30.09 848 25.04 -4.1 24.7 88 -5.8 21.6
16:50 1019 30.09 848 25.04 -4.2 24.5 88 -5.8 21.5
16:55 1019 30.09 848 25.04 -4.1 24.6 88 -5.7 21.7
17:00 1019 30.09 848 25.04 -4 24.9 88 -5.6 21.9
17:05 1019 30.09 849 25.07 -3.9 24.9 89 -5.5 22
17:10 1019 30.09 849 25.07 -3.8 25.1 88 -5.5 22
17:15 1019 30.09 849 25.07 -3.7 25.4 87 -5.5 22.2
17:20 1019 30.09 849 25.07 -3.6 25.5 87 -5.4 22.2
17:25 1019 30.09 849 25.07 -3.7 25.4 88 -5.4 22.3
17:30 1019 30.09 849 25.07 -3.7 25.4 88 -5.4 22.4
17:35 1020 30.12 849 25.07 -3.6 25.5 88 -5.4 22.4
17:40 1020 30.12 849 25.07 -3.5 25.7 87 -5.3 22.5
17:45 1020 30.12 849 25.07 -3.4 25.8 87 -5.4 22.4
17:50 1020 30.12 849 25.07 -3.4 25.9 87 -5.3 22.5
17:55 1020 30.12 849 25.07 -3.3 26 86 -5.3 22.4
18:00 1020 30.12 849 25.07 -3.4 25.9 87 -5.3 22.4
18:05 1020 30.12 849 25.07 -3.5 25.7 87 -5.4 22.3
18:10 1020 30.12 849 25.07 -3.5 25.6 87 -5.4 22.2
18:15 1020 30.12 849 25.07 -3.5 25.6 87 -5.5 22.2
18:20 1020 30.12 849 25.07 -3.5 25.7 86 -5.5 22.2
18:25 1020 30.12 849 25.07 -3.5 25.6 87 -5.5 22.1
18:30 1020 30.12 849 25.07 -3.6 25.6 87 -5.5 22.1
18:35 1020 30.12 850 25.1 -3.7 25.4 87 -5.5 22
18:40 1020 30.12 850 25.1 -3.8 25.2 87 -5.6 21.9
18:45 1021 30.15 850 25.1 -3.8 25.1 88 -5.6 21.9
18:50 1021 30.15 850 25.1 -3.9 24.9 88 -5.7 21.8
18:55 1021 30.15 850 25.1 -4 24.8 88 -5.7 21.7
19:00 1021 30.15 850 25.1 -4.1 24.6 88 -5.7 21.7
19:05 1021 30.15 850 25.1 -4.3 24.3 90 -5.7 21.7
19:10 1021 30.15 850 25.1 -4.3 24.3 89 -5.9 21.5
19:15 1021 30.15 850 25.1 -4.6 23.8 90 -6 21.3
19:20 1021 30.15 850 25.1 -4.8 23.4 91 -6 21.2
19:25 1021 30.15 850 25.1 -4.8 23.3 91 -6.1 21
19:30 1021 30.15 850 25.1 -5.1 22.9 92 -6.2 20.8
19:35 1021 30.15 850 25.1 -5.2 22.6 92 -6.4 20.5
19:40 1021 30.15 850 25.1 -5.4 22.2 92 -6.6 20.2
19:45 1021 30.15 850 25.1 -5.6 21.9 92 -6.7 20
19:50 1021 30.15 850 25.1 -5.7 21.8 90 -7 19.4
19:55 1021 30.15 850 25.1 -5.8 21.5 91 -7.1 19.2
20:00 1021 30.15 850 25.1 -5.8 21.5 91 -7.1 19.2
20:05 1021 30.15 851 25.13 -5.7 21.7 90 -7.2 19.1
20:10 1021 30.15 851 25.13 -5.8 21.6 90 -7.2 19
20:15 1022 30.18 851 25.13 -5.8 21.6 90 -7.2 19
20:20 1022 30.18 851 25.13 -5.8 21.6 91 -7.1 19.2
20:25 1022 30.18 851 25.13 -5.7 21.7 90 -7.1 19.3
20:30 1022 30.18 851 25.13 -5.7 21.7 90 -7.1 19.3
20:35 1022 30.18 851 25.13 -5.6 21.9 90 -7.1 19.3
20:40 1022 30.18 851 25.13 -5.6 21.9 90 -7 19.4
20:45 1022 30.18 851 25.13 -5.6 21.9 90 -7 19.4
20:50 1022 30.18 851 25.13 -5.6 21.9 89 -7.1 19.2
20:55 1022 30.18 851 25.13 -5.7 21.7 90 -7.1 19.2
21:00 1022 30.18 851 25.13 -5.8 21.5 90 -7.2 19.1
21:05 1022 30.18 851 25.13 -5.9 21.3 91 -7.2 19
21:10 1022 30.18 851 25.13 -5.9 21.3 91 -7.2 19.1
21:15 1022 30.18 851 25.13 -5.9 21.4 92 -7.1 19.3
21:20 1022 30.18 851 25.13 -5.8 21.5 91 -7 19.4
21:25 1022 30.18 851 25.13 -5.7 21.7 91 -6.9 19.5
21:30 1022 30.18 851 25.13 -5.6 21.9 90 -6.9 19.5
21:35 1022 30.18 851 25.13 -5.5 22 90 -6.9 19.6
21:40 1022 30.18 851 25.13 -5.5 22.1 90 -6.9 19.6
21:45 1022 30.18 851 25.13 -5.5 22.1 91 -6.8 19.8
21:50 1022 30.18 851 25.13 -5.5 22.1 91 -6.8 19.8
21:55 1022 30.18 851 25.13 -5.5 22 91 -6.8 19.8
22:00 1022 30.18 851 25.13 -5.5 22 91 -6.8 19.8
22:05 1022 30.18 851 25.13 -5.6 22 91 -6.8 19.8
22:10 1022 30.18 851 25.13 -5.5 22 91 -6.7 19.9
22:15 1022 30.18 851 25.13 -5.5 22 91 -6.7 19.9
22:20 1022 30.18 851 25.13 -5.5 22.2 92 -6.5 20.3
22:25 1022 30.18 851 25.13 -5.2 22.7 92 -6.2 20.8
22:30 1022 30.18 851 25.13 -5 23 91 -6.2 20.9
22:35 1022 30.18 851 25.13 -4.9 23.1 91 -6.2 20.9
22:40 1022 30.18 851 25.13 -5 23 91 -6.3 20.7
22:45 1022 30.18 851 25.13 -5 23.1 91 -6.2 20.8
22:50 1022 30.18 851 25.13 -4.9 23.2 91 -6.2 20.9
22:55 1022 30.18 851 25.13 -4.7 23.6 90 -6.1 21.1
23:00 1022 30.18 851 25.13 -4.5 24 89 -6 21.1
23:05 1022 30.18 851 25.13 -4.4 24.1 88 -6.1 21.1
23:10 1022 30.18 851 25.13 -4.4 24.1 89 -6 21.2
23:15 1022 30.18 851 25.13 -4.3 24.3 88 -6 21.3
23:20 1022 30.18 851 25.13 -4 24.8 86 -5.9 21.3
23:25 1022 30.18 851 25.13 -3.9 24.9 84 -6.2 20.8
23:30 1022 30.18 851 25.13 -4.7 23.6 89 -6.3 20.7
23:35 1022 30.18 851 25.13 -4.8 23.4 89 -6.3 20.6
23:40 1022 30.18 851 25.13 -4.7 23.5 89 -6.3 20.7
23:45 1022 30.18 851 25.13 -4.6 23.8 89 -6.2 20.9
23:50 1022 30.18 851 25.13 -4.3 24.3 87 -6.2 20.9
23:55 1022 30.18 851 25.13 -4 24.8 84 -6.3 20.7
24:00 1022 30.18 851 25.13 -3.7 25.3 84 -6.1 21.1